Cloverdale, Michigan
Current Conditions -  °F | °C
As of 5:53 PM on Friday 28 Nov 2014 (Local Time) from KBTL Reporting Station
Overcast Overcast  
Wind Chill: 18°   Ceiling: 9500
Heat Index: 27°   Visibility: 10mi
Dew Point: 18°   Wind: 9mph
Humidity: 69%   Direction: 150°SSE
Pressure: 30.07"   Gusts: NA
Location:  42.56°N, 85.43°W
Report Text: KBTL 282253Z 15008KT 10SM FEW065 OVC095 M03/M08 A3007 RMK AO2 SLP195 T10281078 $
Loading
Personal Weather Stations






























Interactive Weather Map New forecast layout! Learn more

10-Day Weather Forecast

Advertisements
Track Severe Weather on mobile